Time;durP1;ratioP1;P1;durP2;ratioP2;P2;SDS_P1;SDS_P2;PMS_P1;PMS_P2;Temp;Humidity;BMP_temperature;BMP_pressure;BME280_temperature;BME280_humidity;BME280_pressure;Samples;Min_cycle;Max_cycle;Signal;HPM_P1;HPM_P2
2022/09/19 00:00:40;;;;;;;1.00;0.50;;;;;;;;;;7398867;19;20006;-85
2022/09/19 00:03:06;;;;;;;1.92;0.40;;;;;;;;;;7395721;19;20007;-79
2022/09/19 00:05:32;;;;;;;0.20;0.20;;;;;;;;;;7396745;19;20006;-81
2022/09/19 00:07:57;;;;;;;0.40;0.35;;;;;;;;;;7396812;19;20470;-84
2022/09/19 00:10:23;;;;;;;0.30;0.30;;;;;;;;;;7396666;19;20009;-81
2022/09/19 00:12:48;;;;;;;0.30;0.30;;;;;;;;;;7397781;19;19998;-82
2022/09/19 00:15:13;;;;;;;3.63;0.30;;;;;;;;;;7391019;19;19990;-80
2022/09/19 00:17:39;;;;;;;0.57;0.40;;;;;;;;;;7392423;19;20007;-78
2022/09/19 00:20:06;;;;;;;2.08;0.40;;;;;;;;;;7394364;19;19998;-82
2022/09/19 00:22:32;;;;;;;0.95;0.40;;;;;;;;;;7392046;19;20012;-85
2022/09/19 00:24:57;;;;;;;0.77;0.45;;;;;;;;;;7390362;19;19999;-78
2022/09/19 00:27:28;;;;;;;0.32;0.32;;;;;;;;;;7390605;19;20036;-78
2022/09/19 00:29:54;;;;;;;0.73;0.47;;;;;;;;;;7393482;19;20066;-78
2022/09/19 00:32:21;;;;;;;2.25;0.30;;;;;;;;;;7394642;19;20023;-85
2022/09/19 00:34:49;;;;;;;1.25;0.20;;;;;;;;;;7396262;19;20043;-80
2022/09/19 00:37:19;;;;;;;1.17;0.40;;;;;;;;;;7395180;19;20006;-82
2022/09/19 00:39:44;;;;;;;0.20;0.20;;;;;;;;;;7398953;19;20012;-83
2022/09/19 00:42:15;;;;;;;0.00;0.00;;;;;;;;;;7401029;19;19987;-85
2022/09/19 00:44:41;;;;;;;0.10;0.10;;;;;;;;;;7397919;19;20015;-82
2022/09/19 00:47:11;;;;;;;1.20;0.10;;;;;;;;;;7398558;19;20007;-84
2022/09/19 00:49:42;;;;;;;0.00;0.00;;;;;;;;;;7396882;19;20304;-83
2022/09/19 00:52:15;;;;;;;0.08;0.08;;;;;;;;;;7399951;19;20029;-83
2022/09/19 00:54:43;;;;;;;0.73;0.08;;;;;;;;;;7396004;19;21118;-81
2022/09/19 00:57:12;;;;;;;0.10;0.10;;;;;;;;;;7396762;19;20010;-83
2022/09/19 00:59:41;;;;;;;0.00;0.00;;;;;;;;;;7395620;19;19999;-82
2022/09/19 01:02:08;;;;;;;1.55;0.10;;;;;;;;;;7396712;19;20010;-86
2022/09/19 01:04:35;;;;;;;0.00;0.00;;;;;;;;;;7393037;19;20036;-80
2022/09/19 01:07:16;;;;;;;0.00;0.00;;;;;;;;;;7394630;19;20007;-82
2022/09/19 01:10:06;;;;;;;0.00;0.00;;;;;;;;;;7395947;19;20006;-82
2022/09/19 01:13:09;;;;;;;0.00;0.00;;;;;;;;;;7395914;19;19999;-82
2022/09/19 01:15:51;;;;;;;0.90;0.10;;;;;;;;;;7390217;19;20010;-81
2022/09/19 01:18:22;;;;;;;0.30;0.00;;;;;;;;;;7396680;19;20002;-81
2022/09/19 01:20:48;;;;;;;0.00;0.00;;;;;;;;;;7393850;19;20011;-85
2022/09/19 01:23:36;;;;;;;0.00;0.00;;;;;;;;;;7395726;19;20348;-80
2022/09/19 01:26:36;;;;;;;0.00;0.00;;;;;;;;;;7392736;19;20740;-83
2022/09/19 01:29:10;;;;;;;0.00;0.00;;;;;;;;;;7392288;19;20011;-80
2022/09/19 01:31:42;;;;;;;0.00;0.00;;;;;;;;;;7397724;19;19994;-81
2022/09/19 01:34:13;;;;;;;1.48;0.00;;;;;;;;;;7390545;19;20132;-80
2022/09/19 01:36:43;;;;;;;0.30;0.10;;;;;;;;;;7402126;19;20015;-85
2022/09/19 01:39:11;;;;;;;1.77;0.10;;;;;;;;;;7399677;19;20009;-81
2022/09/19 01:41:36;;;;;;;0.32;0.10;;;;;;;;;;7399072;19;20344;-82
2022/09/19 01:44:08;;;;;;;0.10;0.08;;;;;;;;;;7401084;19;20010;-81
2022/09/19 01:46:39;;;;;;;0.43;0.20;;;;;;;;;;7403528;19;20019;-81
2022/09/19 01:49:16;;;;;;;1.15;0.10;;;;;;;;;;7401648;19;20002;-81
2022/09/19 01:51:49;;;;;;;0.20;0.10;;;;;;;;;;7400652;19;20007;-80
2022/09/19 01:55:16;;;;;;;0.10;0.10;;;;;;;;;;7396388;19;20002;-80
2022/09/19 01:57:47;;;;;;;0.00;0.00;;;;;;;;;;7394464;19;20748;-79
2022/09/19 02:00:18;;;;;;;0.13;0.10;;;;;;;;;;7396137;19;20458;-78
2022/09/19 02:03:04;;;;;;;0.65;0.10;;;;;;;;;;7394841;19;20474;-78
2022/09/19 02:05:35;;;;;;;;;;;;;;;;;;7393534;19;20011;-77
2022/09/19 02:08:28;;;;;;;0.00;0.00;;;;;;;;;;7393351;19;19978;-77
2022/09/19 02:11:04;;;;;;;0.10;0.10;;;;;;;;;;7397324;19;20079;-78
2022/09/19 02:13:33;;;;;;;0.60;0.00;;;;;;;;;;7395774;19;20443;-78
2022/09/19 02:16:06;;;;;;;0.10;0.00;;;;;;;;;;7397387;19;20070;-77
2022/09/19 02:18:38;;;;;;;0.20;0.03;;;;;;;;;;7394624;19;19999;-77
2022/09/19 02:21:10;;;;;;;0.00;0.00;;;;;;;;;;7394484;19;20030;-77
2022/09/19 02:26:21;;;;;;;0.10;0.10;;;;;;;;;;7394913;19;20002;-78
2022/09/19 02:28:51;;;;;;;0.10;0.00;;;;;;;;;;7396465;19;19994;-78
2022/09/19 02:31:17;;;;;;;1.60;0.05;;;;;;;;;;7397334;19;20078;-78
2022/09/19 02:33:47;;;;;;;0.10;0.10;;;;;;;;;;7396015;19;20345;-77
2022/09/19 02:36:32;;;;;;;0.43;0.10;;;;;;;;;;7395567;19;20003;-79
2022/09/19 02:39:11;;;;;;;0.13;0.10;;;;;;;;;;7395962;19;20041;-80
2022/09/19 02:41:42;;;;;;;1.52;0.10;;;;;;;;;;7396387;19;20070;-77
2022/09/19 02:44:23;;;;;;;0.10;0.10;;;;;;;;;;7394193;19;20021;-77
2022/09/19 02:47:07;;;;;;;0.95;0.20;;;;;;;;;;7394096;19;20006;-77
2022/09/19 02:49:41;;;;;;;1.17;0.00;;;;;;;;;;7394115;19;20043;-77
2022/09/19 02:52:15;;;;;;;0.10;0.00;;;;;;;;;;7393791;19;20002;-78
2022/09/19 02:54:45;;;;;;;0.00;0.00;;;;;;;;;;7390492;19;20014;-78
2022/09/19 02:57:14;;;;;;;0.20;0.08;;;;;;;;;;7393390;19;20007;-78
2022/09/19 02:59:42;;;;;;;0.32;0.10;;;;;;;;;;7395689;19;20390;-78
2022/09/19 03:02:30;;;;;;;0.03;0.03;;;;;;;;;;7391270;19;20010;-79
2022/09/19 03:05:19;;;;;;;0.20;0.20;;;;;;;;;;7392632;19;20005;-78
2022/09/19 03:08:04;;;;;;;0.13;0.10;;;;;;;;;;7393299;19;20001;-78
2022/09/19 03:10:35;;;;;;;0.25;0.10;;;;;;;;;;7395710;19;20006;-78
2022/09/19 03:13:04;;;;;;;0.10;0.10;;;;;;;;;;7393931;19;20018;-78
2022/09/19 03:15:36;;;;;;;0.20;0.10;;;;;;;;;;7393946;19;20006;-78
2022/09/19 03:18:05;;;;;;;0.40;0.10;;;;;;;;;;7395592;19;19998;-81
2022/09/19 03:20:36;;;;;;;0.52;0.20;;;;;;;;;;7391825;19;20011;-79
2022/09/19 03:23:02;;;;;;;2.83;0.60;;;;;;;;;;7394365;19;20002;-78
2022/09/19 03:25:27;;;;;;;0.10;0.10;;;;;;;;;;7394600;19;20364;-78
2022/09/19 03:27:52;;;;;;;1.45;0.20;;;;;;;;;;7390915;19;20010;-79
2022/09/19 03:30:18;;;;;;;0.00;0.00;;;;;;;;;;7392605;19;19998;-79
2022/09/19 03:32:43;;;;;;;0.70;0.10;;;;;;;;;;7393508;19;20019;-79
2022/09/19 03:35:10;;;;;;;0.20;0.17;;;;;;;;;;7393097;19;19998;-79
2022/09/19 03:37:35;;;;;;;0.20;0.20;;;;;;;;;;7393961;19;20029;-79
2022/09/19 03:40:02;;;;;;;1.52;0.22;;;;;;;;;;7395777;19;20467;-79
2022/09/19 03:42:27;;;;;;;0.85;0.20;;;;;;;;;;7397220;19;20014;-80
2022/09/19 03:44:54;;;;;;;0.40;0.20;;;;;;;;;;7397211;19;20201;-80
2022/09/19 03:47:21;;;;;;;0.10;0.10;;;;;;;;;;7395341;19;19999;-80
2022/09/19 03:49:50;;;;;;;0.63;0.10;;;;;;;;;;7394125;19;20009;-79
2022/09/19 03:52:16;;;;;;;0.38;0.28;;;;;;;;;;7395482;19;20006;-80
2022/09/19 03:54:43;;;;;;;0.32;0.08;;;;;;;;;;7395810;19;20260;-80
2022/09/19 03:57:08;;;;;;;1.90;0.35;;;;;;;;;;7394713;19;20006;-80
2022/09/19 03:59:36;;;;;;;1.42;0.10;;;;;;;;;;7391714;19;20006;-80
2022/09/19 04:02:01;;;;;;;1.35;0.80;;;;;;;;;;7396953;19;20086;-80
2022/09/19 04:04:27;;;;;;;0.60;0.30;;;;;;;;;;7397212;19;20011;-81
2022/09/19 04:06:52;;;;;;;0.10;0.10;;;;;;;;;;7398195;19;20099;-80
2022/09/19 04:09:17;;;;;;;0.93;0.40;;;;;;;;;;7395280;19;20495;-80
2022/09/19 04:11:43;;;;;;;0.90;0.30;;;;;;;;;;7395612;19;20002;-81
2022/09/19 04:14:09;;;;;;;0.75;0.20;;;;;;;;;;7395333;19;20014;-83
2022/09/19 04:16:34;;;;;;;1.27;0.22;;;;;;;;;;7401079;19;20014;-83
2022/09/19 04:19:00;;;;;;;0.98;0.30;;;;;;;;;;7400019;19;20002;-86
2022/09/19 04:21:26;;;;;;;4.13;0.40;;;;;;;;;;7401698;19;20070;-81
2022/09/19 04:23:52;;;;;;;2.72;0.57;;;;;;;;;;7404780;19;20572;-83
2022/09/19 04:26:17;;;;;;;2.83;0.60;;;;;;;;;;7398930;19;20010;-82
2022/09/19 04:28:43;;;;;;;4.30;0.38;;;;;;;;;;7397749;19;19999;-82
2022/09/19 04:31:12;;;;;;;0.30;0.30;;;;;;;;;;7398034;19;20011;-81
2022/09/19 04:33:37;;;;;;;1.75;0.30;;;;;;;;;;7392323;19;19998;-81
2022/09/19 04:36:05;;;;;;;1.40;0.35;;;;;;;;;;7397309;19;20010;-82
2022/09/19 04:38:32;;;;;;;2.40;0.32;;;;;;;;;;7394000;19;20010;-80
2022/09/19 04:40:58;;;;;;;1.40;0.30;;;;;;;;;;7393747;19;20087;-81
2022/09/19 04:43:25;;;;;;;0.43;0.30;;;;;;;;;;7395253;19;20462;-83
2022/09/19 04:45:51;;;;;;;5.28;0.30;;;;;;;;;;7389599;19;20034;-81
2022/09/19 04:48:17;;;;;;;0.65;0.45;;;;;;;;;;7392619;19;20010;-79
2022/09/19 04:50:44;;;;;;;2.65;0.30;;;;;;;;;;7395953;19;20045;-80
2022/09/19 04:53:13;;;;;;;1.02;0.43;;;;;;;;;;7386917;19;21107;-81
2022/09/19 04:55:40;;;;;;;1.73;0.20;;;;;;;;;;7396496;19;20003;-82
2022/09/19 04:58:06;;;;;;;5.22;0.60;;;;;;;;;;7393140;19;20003;-81
2022/09/19 05:00:38;;;;;;;0.85;0.20;;;;;;;;;;7393488;19;20006;-82
2022/09/19 05:03:08;;;;;;;2.13;0.20;;;;;;;;;;7393777;19;20003;-82
2022/09/19 05:05:39;;;;;;;0.93;0.40;;;;;;;;;;7393795;19;20437;-84
2022/09/19 05:08:05;;;;;;;2.97;0.60;;;;;;;;;;7398170;19;20003;-83
2022/09/19 05:10:33;;;;;;;0.68;0.22;;;;;;;;;;7391015;19;20055;-83
2022/09/19 05:12:59;;;;;;;3.38;0.30;;;;;;;;;;7400193;19;20018;-82
2022/09/19 05:15:25;;;;;;;1.48;0.40;;;;;;;;;;7390445;19;20026;-85
2022/09/19 05:17:53;;;;;;;3.45;0.35;;;;;;;;;;7394313;19;20474;-86
2022/09/19 05:20:19;;;;;;;3.60;0.40;;;;;;;;;;7394346;19;20003;-85
2022/09/19 05:22:45;;;;;;;4.47;1.00;;;;;;;;;;7392393;19;20003;-83
2022/09/19 05:25:15;;;;;;;2.22;1.30;;;;;;;;;;7392058;19;20506;-84
2022/09/19 05:27:41;;;;;;;1.33;0.60;;;;;;;;;;7394946;19;20424;-81
2022/09/19 05:30:07;;;;;;;1.60;0.55;;;;;;;;;;7391195;19;20125;-82
2022/09/19 05:32:33;;;;;;;1.58;0.40;;;;;;;;;;7396815;19;20022;-85
2022/09/19 05:35:00;;;;;;;0.88;0.40;;;;;;;;;;7398443;19;20010;-86
2022/09/19 05:37:26;;;;;;;7.85;0.73;;;;;;;;;;7392408;19;21204;-84
2022/09/19 05:39:52;;;;;;;1.73;0.65;;;;;;;;;;7393150;19;20006;-79
2022/09/19 05:42:17;;;;;;;2.67;0.55;;;;;;;;;;7397213;19;20009;-82
2022/09/19 05:44:43;;;;;;;3.42;0.60;;;;;;;;;;7396046;19;19994;-83
2022/09/19 05:47:08;;;;;;;2.05;0.45;;;;;;;;;;7394126;19;20007;-81
2022/09/19 05:49:34;;;;;;;2.95;0.80;;;;;;;;;;7392771;19;20090;-86
2022/09/19 05:53:51;;;;;;;2.83;0.30;;;;;;;;;;7399125;19;20019;-86
2022/09/19 05:54:45;;;;;;;6.07;0.52;;;;;;;;;;7393797;19;20014;-83
2022/09/19 05:57:11;;;;;;;2.75;0.50;;;;;;;;;;7391991;19;20037;-77
2022/09/19 05:59:36;;;;;;;0.82;0.20;;;;;;;;;;7390754;19;20009;-77
2022/09/19 06:02:01;;;;;;;2.67;0.40;;;;;;;;;;7396090;19;20069;-78
2022/09/19 06:04:26;;;;;;;2.70;0.47;;;;;;;;;;7390680;19;20014;-77
2022/09/19 06:06:52;;;;;;;0.82;0.35;;;;;;;;;;7396924;19;20011;-80
2022/09/19 06:09:17;;;;;;;1.50;0.90;;;;;;;;;;7395470;19;20361;-80
2022/09/19 06:11:42;;;;;;;0.90;0.45;;;;;;;;;;7396710;19;20335;-76
2022/09/19 06:14:14;;;;;;;1.50;0.47;;;;;;;;;;7393959;19;20011;-81
2022/09/19 06:16:41;;;;;;;2.95;0.52;;;;;;;;;;7397502;19;20003;-82
2022/09/19 06:19:07;;;;;;;4.75;0.82;;;;;;;;;;7391286;19;20336;-81
2022/09/19 06:21:33;;;;;;;2.22;0.63;;;;;;;;;;7391708;19;20040;-83
2022/09/19 06:23:58;;;;;;;8.50;2.05;;;;;;;;;;7395398;19;20010;-78
2022/09/19 06:26:23;;;;;;;3.13;1.05;;;;;;;;;;7396205;19;20058;-82
2022/09/19 06:28:49;;;;;;;2.85;0.40;;;;;;;;;;7396392;19;20007;-81
2022/09/19 06:31:14;;;;;;;1.38;0.50;;;;;;;;;;7395100;19;20003;-81
2022/09/19 06:33:43;;;;;;;2.05;0.57;;;;;;;;;;7395558;19;20031;-81
2022/09/19 06:36:09;;;;;;;4.80;0.88;;;;;;;;;;7395294;19;20014;-79
2022/09/19 06:38:35;;;;;;;2.83;0.70;;;;;;;;;;7394960;19;20345;-79
2022/09/19 06:41:00;;;;;;;4.80;1.25;;;;;;;;;;7394025;19;20006;-79
2022/09/19 06:43:26;;;;;;;3.38;0.88;;;;;;;;;;7394709;19;20010;-82
2022/09/19 06:45:52;;;;;;;2.13;0.52;;;;;;;;;;7394157;19;20053;-78
2022/09/19 06:48:18;;;;;;;1.35;0.52;;;;;;;;;;7391592;19;20033;-80
2022/09/19 06:50:47;;;;;;;4.80;0.55;;;;;;;;;;7393511;19;20097;-80
2022/09/19 06:53:12;;;;;;;1.98;0.45;;;;;;;;;;7391896;19;20018;-80
2022/09/19 06:55:38;;;;;;;5.50;0.60;;;;;;;;;;7391876;19;20011;-79
2022/09/19 06:58:05;;;;;;;2.65;0.57;;;;;;;;;;7391417;19;20113;-81
2022/09/19 07:00:38;;;;;;;4.00;0.63;;;;;;;;;;7395547;19;19991;-80
2022/09/19 07:03:09;;;;;;;0.50;0.38;;;;;;;;;;7391171;19;20027;-79
2022/09/19 07:05:37;;;;;;;1.95;0.50;;;;;;;;;;7394207;19;20006;-80
2022/09/19 07:08:03;;;;;;;3.78;1.15;;;;;;;;;;7393131;19;20003;-79
2022/09/19 07:10:28;;;;;;;2.45;0.50;;;;;;;;;;7392478;19;19998;-79
2022/09/19 07:12:56;;;;;;;3.10;0.60;;;;;;;;;;7392855;19;20010;-80
2022/09/19 07:15:23;;;;;;;4.18;1.02;;;;;;;;;;7393268;19;20126;-79
2022/09/19 07:17:48;;;;;;;4.18;0.90;;;;;;;;;;7392272;19;20011;-79
2022/09/19 07:20:14;;;;;;;3.75;0.90;;;;;;;;;;7395570;19;20035;-79
2022/09/19 07:22:40;;;;;;;1.65;0.68;;;;;;;;;;7391545;19;20538;-82
2022/09/19 07:25:07;;;;;;;4.03;0.60;;;;;;;;;;7393685;19;20074;-83
2022/09/19 07:27:35;;;;;;;4.45;1.15;;;;;;;;;;7399115;19;19998;-82
2022/09/19 07:30:00;;;;;;;3.60;0.93;;;;;;;;;;7391403;19;20010;-81
2022/09/19 07:32:28;;;;;;;5.70;1.10;;;;;;;;;;7395027;19;20624;-81
2022/09/19 07:34:53;;;;;;;3.97;1.30;;;;;;;;;;7390251;19;20087;-80
2022/09/19 07:37:18;;;;;;;5.88;1.10;;;;;;;;;;7392233;19;20011;-78
2022/09/19 07:39:44;;;;;;;4.78;1.10;;;;;;;;;;7388351;19;20007;-79
2022/09/19 07:42:09;;;;;;;5.00;1.30;;;;;;;;;;7397610;19;20112;-81
2022/09/19 07:44:35;;;;;;;2.58;1.00;;;;;;;;;;7392503;19;20011;-82
2022/09/19 07:49:44;;;;;;;4.88;0.65;;;;;;;;;;7394620;19;20013;-82
2022/09/19 07:52:09;;;;;;;4.82;0.65;;;;;;;;;;7396597;19;20006;-81
2022/09/19 07:54:34;;;;;;;4.72;1.10;;;;;;;;;;7392785;19;20006;-81
2022/09/19 07:57:00;;;;;;;1.92;0.60;;;;;;;;;;7396321;19;20031;-80
2022/09/19 07:59:25;;;;;;;2.55;0.73;;;;;;;;;;7398536;19;20003;-84
2022/09/19 08:01:50;;;;;;;3.55;0.70;;;;;;;;;;7395208;19;20541;-81
2022/09/19 08:04:15;;;;;;;2.05;0.80;;;;;;;;;;7391729;19;20015;-79
2022/09/19 08:06:41;;;;;;;1.67;0.55;;;;;;;;;;7393233;19;20370;-79
2022/09/19 08:09:06;;;;;;;1.58;0.52;;;;;;;;;;7390235;19;20006;-78
2022/09/19 08:11:37;;;;;;;4.22;1.10;;;;;;;;;;7393033;19;20007;-80
2022/09/19 08:14:03;;;;;;;1.92;0.68;;;;;;;;;;7395056;19;20006;-80
2022/09/19 08:16:28;;;;;;;6.78;0.80;;;;;;;;;;7392903;19;20747;-80
2022/09/19 08:18:53;;;;;;;2.20;0.77;;;;;;;;;;7387970;19;20006;-79
2022/09/19 08:21:19;;;;;;;6.82;0.90;;;;;;;;;;7390501;19;20006;-78
2022/09/19 08:23:45;;;;;;;1.63;0.60;;;;;;;;;;7394184;19;20040;-79
2022/09/19 08:26:10;;;;;;;1.52;0.80;;;;;;;;;;7393079;19;20482;-79
2022/09/19 08:28:36;;;;;;;3.10;1.25;;;;;;;;;;7387546;19;20006;-77
2022/09/19 08:31:03;;;;;;;3.70;1.27;;;;;;;;;;7388289;19;20014;-80
2022/09/19 08:33:29;;;;;;;4.22;0.93;;;;;;;;;;7397072;19;20006;-77
2022/09/19 08:35:57;;;;;;;3.70;0.95;;;;;;;;;;7390270;19;20013;-77
2022/09/19 08:38:22;;;;;;;2.78;0.70;;;;;;;;;;7387818;19;20015;-78
2022/09/19 08:41:07;;;;;;;3.38;0.60;;;;;;;;;;7391159;19;20019;-78
2022/09/19 08:43:42;;;;;;;5.07;1.00;;;;;;;;;;7391856;19;20122;-78
2022/09/19 08:46:35;;;;;;;1.40;0.70;;;;;;;;;;7398005;19;20029;-78
2022/09/19 08:49:08;;;;;;;1.67;0.90;;;;;;;;;;7394788;19;20010;-77
2022/09/19 08:51:44;;;;;;;1.48;0.80;;;;;;;;;;7398122;19;20439;-81
2022/09/19 08:54:14;;;;;;;3.90;0.80;;;;;;;;;;7399315;19;20022;-76
2022/09/19 08:56:41;;;;;;;8.93;2.00;;;;;;;;;;7398357;19;20010;-79
2022/09/19 08:59:14;;;;;;;8.77;2.53;;;;;;;;;;7397656;19;20122;-78
2022/09/19 09:01:41;;;;;;;8.48;2.25;;;;;;;;;;7395411;19;20018;-79
2022/09/19 09:04:25;;;;;;;3.20;0.80;;;;;;;;;;7396559;19;20030;-77
2022/09/19 09:07:28;;;;;;;8.15;1.85;;;;;;;;;;7394481;19;20010;-79
2022/09/19 09:09:54;;;;;;;1.80;0.77;;;;;;;;;;7396137;19;20011;-77
2022/09/19 09:12:55;;;;;;;4.38;1.40;;;;;;;;;;7396391;19;20341;-77
2022/09/19 09:15:32;;;;;;;4.85;0.75;;;;;;;;;;7396804;19;20014;-78
2022/09/19 09:18:20;;;;;;;3.08;0.60;;;;;;;;;;7398672;19;20015;-79
2022/09/19 09:21:14;;;;;;;1.70;0.80;;;;;;;;;;7400344;19;20014;-79
2022/09/19 09:23:45;;;;;;;3.38;0.93;;;;;;;;;;7397198;19;20010;-80
2022/09/19 09:26:15;;;;;;;1.00;0.70;;;;;;;;;;7397448;19;20006;-79
2022/09/19 09:28:46;;;;;;;3.97;0.88;;;;;;;;;;7396729;19;20121;-79
2022/09/19 09:31:24;;;;;;;4.13;0.98;;;;;;;;;;7396673;19;20003;-78
2022/09/19 09:34:25;;;;;;;2.83;0.90;;;;;;;;;;7399374;19;20018;-80
2022/09/19 09:37:21;;;;;;;5.63;1.25;;;;;;;;;;7398189;19;20007;-77
2022/09/19 09:40:08;;;;;;;4.28;0.95;;;;;;;;;;7397644;19;20017;-79
2022/09/19 09:42:47;;;;;;;3.17;1.45;;;;;;;;;;7395154;19;20002;-79
2022/09/19 09:45:35;;;;;;;5.28;0.60;;;;;;;;;;7398712;19;20006;-81
2022/09/19 09:48:24;;;;;;;4.78;0.75;;;;;;;;;;7401368;19;20006;-80
2022/09/19 09:51:25;;;;;;;4.97;1.02;;;;;;;;;;7400799;19;20035;-79
2022/09/19 09:56:14;;;;;;;6.50;1.15;;;;;;;;;;7392328;19;20375;-78
2022/09/19 09:57:32;;;;;;;1.92;0.50;;;;;;;;;;7396683;19;20487;-81
2022/09/19 10:05:59;;;;;;;2.70;0.75;;;;;;;;;;7392183;19;20006;-80
2022/09/19 10:08:31;;;;;;;3.53;1.10;;;;;;;;;;7395706;19;20011;-80
2022/09/19 10:11:12;;;;;;;1.45;0.80;;;;;;;;;;7394050;19;20018;-81
2022/09/19 10:13:48;;;;;;;3.22;1.08;;;;;;;;;;7395188;19;20006;-78
2022/09/19 10:16:17;;;;;;;;;;;;;;;;;;7396911;19;20015;-77
2022/09/19 10:18:47;;;;;;;2.33;0.77;;;;;;;;;;7396907;19;19918;-78
2022/09/19 10:21:13;;;;;;;3.72;1.15;;;;;;;;;;7397324;19;20011;-77
2022/09/19 10:23:45;;;;;;;4.95;1.10;;;;;;;;;;7394214;19;20017;-78
2022/09/19 10:26:16;;;;;;;2.97;0.90;;;;;;;;;;7394427;19;20006;-78
2022/09/19 10:28:51;;;;;;;6.75;1.05;;;;;;;;;;7394263;19;20016;-79
2022/09/19 10:31:29;;;;;;;7.55;0.98;;;;;;;;;;7396379;19;20025;-79
2022/09/19 10:33:54;;;;;;;7.60;1.30;;;;;;;;;;7392517;19;20010;-80
2022/09/19 10:36:22;;;;;;;4.50;1.00;;;;;;;;;;7391427;19;20062;-78
2022/09/19 10:38:58;;;;;;;4.45;1.23;;;;;;;;;;7396247;19;20032;-79
2022/09/19 10:41:26;;;;;;;5.93;1.10;;;;;;;;;;7394525;19;20045;-78
2022/09/19 10:43:58;;;;;;;12.60;2.25;;;;;;;;;;7393023;19;20010;-79
2022/09/19 10:46:35;;;;;;;3.25;0.80;;;;;;;;;;7394362;19;19999;-78
2022/09/19 10:49:05;;;;;;;2.25;0.98;;;;;;;;;;7393013;19;20039;-78
2022/09/19 10:51:41;;;;;;;2.65;0.90;;;;;;;;;;7396357;19;20010;-83
2022/09/19 10:54:11;;;;;;;3.38;1.20;;;;;;;;;;7395879;19;20006;-83
2022/09/19 10:56:40;;;;;;;4.35;1.40;;;;;;;;;;7398782;19;20010;-82
2022/09/19 10:59:23;;;;;;;5.60;0.90;;;;;;;;;;7395483;19;20015;-84
2022/09/19 11:02:18;;;;;;;2.05;0.88;;;;;;;;;;7399085;19;20603;-82
2022/09/19 11:04:57;;;;;;;4.40;0.82;;;;;;;;;;7398480;19;20014;-80
2022/09/19 11:07:26;;;;;;;1.48;0.63;;;;;;;;;;7387128;19;20455;-80
2022/09/19 11:09:58;;;;;;;2.90;0.80;;;;;;;;;;7391130;19;20497;-80
2022/09/19 11:12:24;;;;;;;4.00;0.70;;;;;;;;;;7387677;19;20006;-82
2022/09/19 11:14:49;;;;;;;3.88;1.20;;;;;;;;;;7374367;19;20007;-80
2022/09/19 11:17:18;;;;;;;2.38;0.80;;;;;;;;;;7388798;19;20224;-80
2022/09/19 11:20:16;;;;;;;3.08;0.73;;;;;;;;;;7390521;19;20069;-78
2022/09/19 11:23:15;;;;;;;2.25;0.60;;;;;;;;;;7387438;19;20406;-80
2022/09/19 11:25:58;;;;;;;0.88;0.60;;;;;;;;;;7385518;19;20013;-80
2022/09/19 11:28:43;;;;;;;2.78;0.70;;;;;;;;;;7391607;19;20006;-81
2022/09/19 11:31:20;;;;;;;2.72;0.68;;;;;;;;;;7394256;19;20178;-81
2022/09/19 11:34:11;;;;;;;5.25;0.93;;;;;;;;;;7381790;19;20017;-81
2022/09/19 11:36:55;;;;;;;3.67;1.05;;;;;;;;;;7393211;19;20014;-82
2022/09/19 11:39:48;;;;;;;3.05;0.95;;;;;;;;;;7391171;19;20010;-82
2022/09/19 11:42:23;;;;;;;3.80;0.70;;;;;;;;;;7392082;19;20006;-82
2022/09/19 11:45:05;;;;;;;3.15;0.70;;;;;;;;;;7387153;19;20188;-81
2022/09/19 11:48:00;;;;;;;3.88;0.65;;;;;;;;;;7387790;19;20027;-79
2022/09/19 11:50:44;;;;;;;2.78;0.75;;;;;;;;;;7392354;19;20019;-79
2022/09/19 11:53:56;;;;;;;4.70;0.82;;;;;;;;;;7390699;19;20010;-80
2022/09/19 11:56:46;;;;;;;5.22;0.90;;;;;;;;;;7387486;19;20010;-80
2022/09/19 11:59:45;;;;;;;0.60;0.60;;;;;;;;;;7389118;19;20035;-79
2022/09/19 12:02:36;;;;;;;7.75;1.00;;;;;;;;;;7389780;19;20128;-79
2022/09/19 12:05:19;;;;;;;1.30;0.45;;;;;;;;;;7389481;19;20033;-79
2022/09/19 12:07:57;;;;;;;3.47;0.90;;;;;;;;;;7390851;19;20024;-78
2022/09/19 12:10:36;;;;;;;0.77;0.43;;;;;;;;;;7390889;19;20007;-77
2022/09/19 12:13:11;;;;;;;3.20;0.98;;;;;;;;;;7389328;19;20006;-80
2022/09/19 12:15:39;;;;;;;;;;;;;;;;;;7388573;19;20355;-79
2022/09/19 12:18:10;;;;;;;2.20;0.75;;;;;;;;;;7387887;19;19925;-81
2022/09/19 12:20:42;;;;;;;2.17;0.73;;;;;;;;;;7392707;19;20002;-80
2022/09/19 12:26:32;;;;;;;2.03;0.90;;;;;;;;;;7390395;19;20028;-78
2022/09/19 12:29:12;;;;;;;1.80;0.55;;;;;;;;;;7383590;19;20023;-79
2022/09/19 12:31:41;;;;;;;3.05;0.70;;;;;;;;;;7387447;19;20023;-78
2022/09/19 12:34:42;;;;;;;2.67;0.80;;;;;;;;;;7391683;19;20483;-78
2022/09/19 12:37:31;;;;;;;2.92;0.80;;;;;;;;;;7387870;19;20236;-79
2022/09/19 12:40:15;;;;;;;1.08;0.60;;;;;;;;;;7391476;19;20627;-79
2022/09/19 12:42:46;;;;;;;3.60;0.60;;;;;;;;;;7392206;19;20006;-79
2022/09/19 12:45:52;;;;;;;3.15;0.80;;;;;;;;;;7388598;19;20014;-80
2022/09/19 12:48:50;;;;;;;2.75;0.60;;;;;;;;;;7391670;19;20021;-79
2022/09/19 12:51:24;;;;;;;2.33;0.77;;;;;;;;;;7389640;19;20332;-79
2022/09/19 12:54:03;;;;;;;3.03;1.30;;;;;;;;;;7388019;19;20023;-79
2022/09/19 12:56:36;;;;;;;2.35;0.80;;;;;;;;;;7391529;19;20355;-80
2022/09/19 12:59:19;;;;;;;1.65;0.63;;;;;;;;;;7388324;19;20018;-80
2022/09/19 13:01:56;;;;;;;1.85;0.50;;;;;;;;;;7391721;19;20035;-79
2022/09/19 13:04:43;;;;;;;1.88;0.50;;;;;;;;;;7387179;19;20518;-77
2022/09/19 13:07:31;;;;;;;4.68;0.88;;;;;;;;;;7391803;19;20398;-79
2022/09/19 13:10:11;;;;;;;1.75;0.75;;;;;;;;;;7390449;19;20078;-79
2022/09/19 13:12:51;;;;;;;3.95;0.60;;;;;;;;;;7390051;19;20006;-79
2022/09/19 13:15:30;;;;;;;4.68;0.70;;;;;;;;;;7390446;19;20054;-79
2022/09/19 13:23:33;;;;;;;1.75;0.65;;;;;;;;;;7387589;19;20478;-79
2022/09/19 13:26:17;;;;;;;2.58;0.98;;;;;;;;;;7388610;19;20463;-77
2022/09/19 13:28:48;;;;;;;5.60;1.67;;;;;;;;;;7390637;19;20018;-78
2022/09/19 13:31:17;;;;;;;2.38;0.70;;;;;;;;;;7390850;19;20049;-77
2022/09/19 13:33:45;;;;;;;1.50;0.52;;;;;;;;;;7392457;19;20014;-76
2022/09/19 13:36:17;;;;;;;3.53;1.40;;;;;;;;;;7396316;19;20014;-77
2022/09/19 13:39:04;;;;;;;2.08;0.63;;;;;;;;;;7395821;19;20215;-78
2022/09/19 13:42:05;;;;;;;3.95;1.40;;;;;;;;;;7396416;19;20350;-77
2022/09/19 13:44:41;;;;;;;2.53;1.30;;;;;;;;;;7389282;19;20049;-77
2022/09/19 13:47:19;;;;;;;2.70;1.33;;;;;;;;;;7395402;19;20002;-77
2022/09/19 13:49:53;;;;;;;3.53;1.52;;;;;;;;;;7394570;19;20010;-78
2022/09/19 13:52:34;;;;;;;5.60;1.30;;;;;;;;;;7394508;19;20404;-77
2022/09/19 13:55:30;;;;;;;2.42;0.80;;;;;;;;;;7393556;19;20010;-78
2022/09/19 13:58:18;;;;;;;3.63;1.30;;;;;;;;;;7395258;19;20138;-78
2022/09/19 14:00:44;;;;;;;2.17;1.23;;;;;;;;;;7393215;19;20010;-78
2022/09/19 14:03:30;;;;;;;3.58;1.17;;;;;;;;;;7393903;19;20013;-76
2022/09/19 14:06:24;;;;;;;1.77;0.90;;;;;;;;;;7392950;19;20010;-79
2022/09/19 14:09:14;;;;;;;2.97;1.00;;;;;;;;;;7397509;19;20014;-80
2022/09/19 14:11:39;;;;;;;2.67;1.50;;;;;;;;;;7393280;19;20380;-81
2022/09/19 14:14:40;;;;;;;2.38;0.90;;;;;;;;;;7399897;19;20011;-83
2022/09/19 14:17:18;;;;;;;3.55;0.98;;;;;;;;;;7400474;19;20027;-78
2022/09/19 14:19:53;;;;;;;2.25;0.73;;;;;;;;;;7395172;19;20013;-79
2022/09/19 14:22:39;;;;;;;2.25;0.70;;;;;;;;;;7395116;19;20471;-78
2022/09/19 14:25:19;;;;;;;3.38;1.17;;;;;;;;;;7393595;19;20074;-78
2022/09/19 14:27:56;;;;;;;2.55;1.30;;;;;;;;;;7390828;19;20006;-77
2022/09/19 14:30:40;;;;;;;2.03;1.27;;;;;;;;;;7390600;19;20010;-79
2022/09/19 14:33:27;;;;;;;6.50;2.83;;;;;;;;;;7393169;19;20504;-77
2022/09/19 14:36:24;;;;;;;2.65;1.60;;;;;;;;;;7387171;19;20532;-73
2022/09/19 14:39:11;;;;;;;1.30;0.80;;;;;;;;;;7396349;19;20128;-72
2022/09/19 14:41:36;;;;;;;1.23;0.47;;;;;;;;;;7395840;19;19999;-73
2022/09/19 14:44:31;;;;;;;2.40;0.77;;;;;;;;;;7389213;19;19994;-73
2022/09/19 14:47:08;;;;;;;1.17;0.47;;;;;;;;;;7391884;19;20036;-73
2022/09/19 14:49:52;;;;;;;3.50;0.70;;;;;;;;;;7394959;19;19998;-73
2022/09/19 14:52:22;;;;;;;1.10;0.50;;;;;;;;;;7394327;19;20016;-72
2022/09/19 14:54:47;;;;;;;3.42;0.68;;;;;;;;;;7390529;19;20013;-73
2022/09/19 14:57:15;;;;;;;1.55;0.70;;;;;;;;;;7395262;19;20050;-73
2022/09/19 14:59:42;;;;;;;1.23;0.60;;;;;;;;;;7391148;19;20003;-73
2022/09/19 15:02:19;;;;;;;1.48;0.50;;;;;;;;;;7395569;19;19995;-72
2022/09/19 15:04:46;;;;;;;0.70;0.30;;;;;;;;;;7394106;19;20049;-73
2022/09/19 15:07:11;;;;;;;1.33;0.70;;;;;;;;;;7394602;19;19995;-73
2022/09/19 15:09:39;;;;;;;0.73;0.60;;;;;;;;;;7390126;19;20001;-73
2022/09/19 15:12:33;;;;;;;0.90;0.43;;;;;;;;;;7391751;19;19999;-73
2022/09/19 15:14:59;;;;;;;1.27;0.40;;;;;;;;;;7390141;19;20613;-73
2022/09/19 15:17:31;;;;;;;3.40;0.57;;;;;;;;;;7392769;19;20073;-72
2022/09/19 15:20:17;;;;;;;1.85;0.50;;;;;;;;;;7394141;19;20099;-73
2022/09/19 15:22:51;;;;;;;2.78;0.50;;;;;;;;;;7395357;19;20002;-73
2022/09/19 15:25:35;;;;;;;1.52;0.57;;;;;;;;;;7393815;19;20023;-72
2022/09/19 15:28:02;;;;;;;1.30;0.50;;;;;;;;;;7393163;19;20427;-73
2022/09/19 15:30:33;;;;;;;4.90;0.60;;;;;;;;;;7388959;19;20110;-73
2022/09/19 15:33:03;;;;;;;3.33;0.70;;;;;;;;;;7393904;19;20014;-73
2022/09/19 15:35:30;;;;;;;1.10;0.70;;;;;;;;;;7392266;19;20021;-73
2022/09/19 15:38:08;;;;;;;2.60;0.75;;;;;;;;;;7393982;19;20006;-73
2022/09/19 15:40:34;;;;;;;1.38;0.68;;;;;;;;;;7394045;19;20002;-73